createdAt,value
2023-07-01T00:00:07.704Z,0.00
2023-07-01T00:00:47.889Z,0.00
2023-07-01T00:01:19.614Z,0.00
2023-07-01T00:01:51.388Z,0.00
2023-07-01T00:02:23.466Z,0.00
2023-07-01T00:02:55.662Z,0.00
2023-07-01T00:03:27.465Z,0.00
2023-07-01T00:03:59.492Z,0.00
2023-07-01T00:04:31.567Z,0.00
2023-07-01T00:05:04.305Z,0.00
2023-07-01T00:05:35.438Z,0.00
2023-07-01T00:06:07.385Z,0.00
2023-07-01T00:06:39.283Z,0.00
2023-07-01T00:07:11.333Z,0.00
2023-07-01T00:07:43.232Z,0.00
2023-07-01T00:08:15.312Z,0.00
2023-07-01T00:08:31.276Z,0.00
2023-07-01T00:09:15.384Z,0.00
2023-07-01T00:09:31.289Z,0.00
2023-07-01T00:10:15.502Z,0.00
2023-07-01T00:10:47.557Z,0.00
2023-07-01T00:11:18.995Z,0.00
2023-07-01T00:11:51.079Z,0.00
2023-07-01T00:12:23.110Z,0.00
2023-07-01T00:12:55.128Z,0.00
2023-07-01T00:13:27.066Z,0.00
2023-07-01T00:13:59.031Z,0.00
2023-07-01T00:14:31.001Z,0.00
2023-07-01T00:15:05.821Z,0.00
2023-07-01T00:15:34.833Z,0.00
2023-07-01T00:16:06.866Z,0.00
2023-07-01T00:16:39.000Z,0.00
2023-07-01T00:17:11.171Z,0.00
2023-07-01T00:17:42.858Z,0.00
2023-07-01T00:17:59.010Z,0.00
2023-07-01T00:18:42.758Z,0.00
2023-07-01T00:19:14.882Z,0.00
2023-07-01T00:19:46.818Z,0.00
2023-07-01T00:20:19.009Z,0.00
2023-07-01T00:20:50.798Z,0.00
2023-07-01T00:21:22.869Z,0.00
2023-07-01T00:21:54.812Z,0.00
2023-07-01T00:22:26.730Z,0.00
2023-07-01T00:22:58.660Z,0.00
2023-07-01T00:23:30.744Z,0.00
2023-07-01T00:24:02.898Z,0.00
2023-07-01T00:24:34.552Z,0.00
2023-07-01T00:25:06.981Z,0.00
2023-07-01T00:25:38.579Z,0.00
2023-07-01T00:26:10.592Z,0.00
2023-07-01T00:26:42.656Z,0.00
2023-07-01T00:27:14.556Z,0.00
2023-07-01T00:27:46.731Z,0.00
2023-07-01T00:28:18.304Z,0.00
2023-07-01T00:28:50.483Z,0.00
2023-07-01T00:29:22.399Z,0.00
2023-07-01T00:29:54.533Z,0.00
2023-07-01T00:30:26.709Z,0.00
2023-07-01T00:30:42.622Z,0.00
2023-07-01T00:31:26.360Z,0.00
2023-07-01T00:31:58.271Z,0.00
2023-07-01T00:32:30.273Z,0.00
2023-07-01T00:33:02.798Z,0.00
2023-07-01T00:33:34.179Z,0.00
2023-07-01T00:34:06.286Z,0.00
2023-07-01T00:34:38.058Z,0.00
2023-07-01T00:35:10.707Z,0.00
2023-07-01T00:35:42.040Z,0.00
2023-07-01T00:36:14.163Z,0.00
2023-07-01T00:36:45.904Z,0.00
2023-07-01T00:37:17.832Z,0.00
2023-07-01T00:37:50.016Z,0.00
2023-07-01T00:38:21.934Z,0.00
2023-07-01T00:38:53.910Z,0.00
2023-07-01T00:39:25.971Z,0.00
2023-07-01T00:39:42.007Z,0.00
2023-07-01T00:40:14.101Z,0.00
2023-07-01T00:40:29.912Z,0.00
2023-07-01T00:41:02.189Z,0.00
2023-07-01T00:41:33.832Z,0.00
2023-07-01T00:42:05.888Z,0.00
2023-07-01T00:42:37.818Z,0.00
2023-07-01T00:43:09.804Z,0.00
2023-07-01T00:43:41.713Z,0.00
2023-07-01T00:43:57.767Z,0.00
2023-07-01T00:44:29.619Z,0.00
2023-07-01T00:45:15.249Z,0.00
2023-07-01T00:45:45.902Z,0.00
2023-07-01T00:46:17.835Z,0.00
2023-07-01T00:46:49.720Z,0.00
2023-07-01T00:47:21.742Z,0.00
2023-07-01T00:47:53.519Z,0.00
2023-07-01T00:48:25.674Z,0.00
2023-07-01T00:48:41.889Z,0.00
2023-07-01T00:49:25.504Z,0.00
2023-07-01T00:49:57.551Z,0.00
2023-07-01T00:50:29.687Z,0.00
2023-07-01T00:51:01.730Z,0.00
2023-07-01T00:51:33.446Z,0.00
2023-07-01T00:52:05.652Z,0.00
2023-07-01T00:52:37.195Z,0.00
2023-07-01T00:53:09.399Z,0.00
2023-07-01T00:53:41.479Z,0.00
2023-07-01T00:54:13.354Z,0.00
2023-07-01T00:54:45.268Z,0.00
2023-07-01T00:55:17.474Z,0.00
2023-07-01T00:55:49.305Z,0.00
2023-07-01T00:56:21.288Z,0.00
2023-07-01T00:56:53.096Z,0.00
2023-07-01T00:57:25.146Z,0.00
2023-07-01T00:57:57.202Z,0.00
2023-07-01T00:58:29.266Z,0.00
2023-07-01T00:59:01.197Z,0.00
2023-07-01T00:59:32.995Z,0.00
2023-07-01T01:00:07.325Z,0.00
2023-07-01T01:00:37.143Z,0.00
2023-07-01T01:01:09.130Z,0.00
2023-07-01T01:01:41.078Z,0.00
2023-07-01T01:02:13.130Z,0.00
2023-07-01T01:02:45.218Z,0.00
2023-07-01T01:03:16.898Z,0.00
2023-07-01T01:03:49.005Z,0.00
2023-07-01T01:04:20.983Z,0.00
2023-07-01T01:04:52.928Z,0.00
2023-07-01T01:05:25.221Z,0.00
2023-07-01T01:05:41.014Z,0.00
2023-07-01T01:06:24.806Z,0.00
2023-07-01T01:06:56.849Z,0.00
2023-07-01T01:07:28.684Z,0.00
2023-07-01T01:08:00.963Z,0.00
2023-07-01T01:08:32.632Z,0.00
2023-07-01T01:09:05.188Z,0.00
2023-07-01T01:09:36.968Z,0.00
2023-07-01T01:10:08.933Z,0.00
2023-07-01T01:10:40.760Z,0.00
2023-07-01T01:11:12.634Z,0.00
2023-07-01T01:11:44.451Z,0.00
2023-07-01T01:12:16.476Z,0.00
2023-07-01T01:12:48.536Z,0.00
2023-07-01T01:13:20.708Z,0.00
2023-07-01T01:13:52.379Z,0.00
2023-07-01T01:14:24.481Z,0.00
2023-07-01T01:14:56.562Z,0.00
2023-07-01T01:15:28.908Z,0.00
2023-07-01T01:16:00.434Z,0.00
2023-07-01T01:16:32.413Z,0.00
2023-07-01T01:17:04.757Z,0.00
2023-07-01T01:17:36.573Z,0.00
2023-07-01T01:18:08.328Z,0.00
2023-07-01T01:18:40.327Z,0.00
2023-07-01T01:19:12.375Z,0.00
2023-07-01T01:19:44.298Z,0.00
2023-07-01T01:20:16.346Z,0.00
2023-07-01T01:20:48.501Z,0.00
2023-07-01T01:21:20.332Z,0.00
2023-07-01T01:21:52.215Z,0.00
2023-07-01T01:22:24.086Z,0.00
2023-07-01T01:22:47.084Z,0.00
2023-07-01T01:23:24.094Z,0.00
2023-07-01T01:23:56.320Z,0.00
2023-07-01T01:24:28.166Z,0.00
2023-07-01T01:24:59.947Z,0.00
2023-07-01T01:25:16.444Z,0.00
2023-07-01T01:25:47.851Z,0.00
2023-07-01T01:26:32.058Z,0.00
2023-07-01T01:27:04.428Z,0.00
2023-07-01T01:27:35.818Z,0.00
2023-07-01T01:28:07.828Z,0.00
2023-07-01T01:28:40.036Z,0.00
2023-07-01T01:29:11.777Z,0.00
2023-07-01T01:29:27.896Z,0.00
2023-07-01T01:29:59.898Z,0.00
2023-07-01T01:30:44.441Z,0.00
2023-07-01T01:31:15.827Z,0.00
2023-07-01T01:31:47.704Z,0.00
2023-07-01T01:32:19.678Z,0.00
2023-07-01T01:32:51.672Z,0.00
2023-07-01T01:33:23.825Z,0.00
2023-07-01T01:33:55.668Z,0.00
2023-07-01T01:34:27.645Z,0.00
2023-07-01T01:34:59.581Z,0.00
2023-07-01T01:35:31.864Z,0.00
2023-07-01T01:36:04.224Z,0.00
2023-07-01T01:36:35.517Z,0.00
2023-07-01T01:37:07.425Z,0.00
2023-07-01T01:37:39.663Z,0.00
2023-07-01T01:38:11.418Z,0.00
2023-07-01T01:38:27.533Z,0.00
2023-07-01T01:39:11.550Z,0.00
2023-07-01T01:39:27.632Z,0.00
2023-07-01T01:40:11.780Z,0.00
2023-07-01T01:40:43.392Z,0.00
2023-07-01T01:41:15.390Z,0.00
2023-07-01T01:41:47.416Z,0.00
2023-07-01T01:42:19.353Z,0.00
2023-07-01T01:42:51.421Z,0.00
2023-07-01T01:43:23.249Z,0.00
2023-07-01T01:43:55.507Z,0.00
2023-07-01T01:44:27.239Z,0.00
2023-07-01T01:44:59.345Z,0.00
2023-07-01T01:45:31.578Z,0.00
2023-07-01T01:46:03.954Z,0.00
2023-07-01T01:46:35.242Z,0.00
2023-07-01T01:47:07.431Z,0.00
2023-07-01T01:47:39.165Z,0.00
2023-07-01T01:47:55.365Z,0.00
2023-07-01T01:48:39.042Z,0.00
2023-07-01T01:49:11.065Z,0.00
2023-07-01T01:49:43.081Z,0.00
2023-07-01T01:50:16.623Z,0.00
2023-07-01T01:50:48.035Z,0.00
2023-07-01T01:51:18.856Z,0.00
2023-07-01T01:51:51.159Z,0.00
2023-07-01T01:52:22.789Z,0.00
2023-07-01T01:52:54.942Z,0.00
2023-07-01T01:53:27.074Z,0.00
2023-07-01T01:53:59.003Z,0.00
2023-07-01T01:54:30.713Z,0.00
2023-07-01T01:55:03.551Z,0.00
2023-07-01T01:55:34.633Z,0.00
2023-07-01T01:56:06.637Z,0.00
2023-07-01T01:56:38.821Z,0.00
2023-07-01T01:56:54.806Z,0.00
2023-07-01T01:57:26.672Z,0.00
2023-07-01T01:58:10.853Z,0.00
2023-07-01T01:58:42.640Z,0.00
2023-07-01T01:59:14.692Z,0.00
2023-07-01T01:59:46.711Z,0.00
2023-07-01T02:00:19.236Z,0.00
2023-07-01T02:00:50.746Z,0.00
2023-07-01T02:01:22.480Z,0.00
2023-07-01T02:01:54.740Z,0.00
2023-07-01T02:02:26.850Z,0.00
2023-07-01T02:02:58.517Z,0.00
2023-07-01T02:03:30.648Z,0.00
2023-07-01T02:04:03.156Z,0.00
2023-07-01T02:04:34.674Z,0.00
2023-07-01T02:05:06.399Z,0.00
2023-07-01T02:05:38.402Z,0.00
2023-07-01T02:06:10.353Z,0.00
2023-07-01T02:06:42.493Z,0.00
2023-07-01T02:07:14.138Z,0.00
2023-07-01T02:07:46.370Z,0.00
2023-07-01T02:08:18.281Z,0.00
2023-07-01T02:08:50.322Z,0.00
2023-07-01T02:09:22.103Z,0.00
2023-07-01T02:09:38.348Z,0.00
2023-07-01T02:10:10.407Z,0.00
2023-07-01T02:10:26.110Z,0.00
2023-07-01T02:10:58.393Z,0.00
2023-07-01T02:11:30.024Z,0.00
2023-07-01T02:12:02.787Z,0.00
2023-07-01T02:12:34.164Z,0.00
2023-07-01T02:13:06.036Z,0.00
2023-07-01T02:13:37.849Z,0.00
2023-07-01T02:13:54.268Z,0.00
2023-07-01T02:14:26.244Z,0.00
2023-07-01T02:15:11.754Z,0.00
2023-07-01T02:15:42.124Z,0.00
2023-07-01T02:16:13.912Z,0.00
2023-07-01T02:16:45.884Z,0.00
2023-07-01T02:17:18.036Z,0.00
2023-07-01T02:17:49.909Z,0.00
2023-07-01T02:18:21.693Z,0.00
2023-07-01T02:18:37.887Z,0.00
2023-07-01T02:19:21.737Z,0.00
2023-07-01T02:19:53.972Z,0.00
2023-07-01T02:20:25.945Z,0.00
2023-07-01T02:20:57.715Z,0.00
2023-07-01T02:21:29.825Z,0.00
2023-07-01T02:22:01.945Z,0.00
2023-07-01T02:22:33.682Z,0.00
2023-07-01T02:23:05.823Z,0.00
2023-07-01T02:23:37.586Z,0.00
2023-07-01T02:24:09.604Z,0.00
2023-07-01T02:24:43.092Z,0.00
2023-07-01T02:25:13.744Z,0.00
2023-07-01T02:25:45.477Z,0.00
2023-07-01T02:26:17.423Z,0.00
2023-07-01T02:26:49.534Z,0.00
2023-07-01T02:27:21.333Z,0.00
2023-07-01T02:27:37.641Z,0.00
2023-07-01T02:28:09.473Z,0.00
2023-07-01T02:28:25.456Z,0.00
2023-07-01T02:28:57.469Z,0.00
2023-07-01T02:29:29.256Z,0.00
2023-07-01T02:30:03.379Z,0.00
2023-07-01T02:30:33.406Z,0.00
2023-07-01T02:31:05.578Z,0.00
2023-07-01T02:31:37.276Z,0.00
2023-07-01T02:31:53.262Z,0.00
2023-07-01T02:32:25.123Z,0.00
2023-07-01T02:33:09.283Z,0.00
2023-07-01T02:33:41.262Z,0.00
2023-07-01T02:34:13.171Z,0.00
2023-07-01T02:34:45.148Z,0.00
2023-07-01T02:35:17.409Z,0.00
2023-07-01T02:35:48.982Z,0.00
2023-07-01T02:36:21.076Z,0.00
2023-07-01T02:36:53.032Z,0.00
2023-07-01T02:37:25.038Z,0.00
2023-07-01T02:37:57.241Z,0.00
2023-07-01T02:38:28.852Z,0.00
2023-07-01T02:39:01.031Z,0.00
2023-07-01T02:39:32.983Z,0.00
2023-07-01T02:40:05.846Z,0.00
2023-07-01T02:40:36.982Z,0.00
2023-07-01T02:40:53.197Z,0.00
2023-07-01T02:41:36.930Z,0.00
2023-07-01T02:42:08.932Z,0.00
2023-07-01T02:42:40.794Z,0.00
2023-07-01T02:43:12.766Z,0.00
2023-07-01T02:43:44.744Z,0.00
2023-07-01T02:44:16.921Z,0.00
2023-07-01T02:44:48.736Z,0.00
2023-07-01T02:45:21.025Z,0.00
2023-07-01T02:45:52.718Z,0.00
2023-07-01T02:46:24.751Z,0.00
2023-07-01T02:46:56.582Z,0.00
2023-07-01T02:47:28.803Z,0.00
2023-07-01T02:48:00.738Z,0.00
2023-07-01T02:48:32.524Z,0.00
2023-07-01T02:49:04.916Z,0.00
2023-07-01T02:49:36.526Z,0.00
2023-07-01T02:49:52.507Z,0.00
2023-07-01T02:50:24.659Z,0.00
2023-07-01T02:51:08.506Z,0.00
2023-07-01T02:51:40.431Z,0.00
2023-07-01T02:52:12.368Z,0.00
2023-07-01T02:52:44.348Z,0.00
2023-07-01T02:53:16.430Z,0.00
2023-07-01T02:53:48.365Z,0.00
2023-07-01T02:54:20.183Z,0.00
2023-07-01T02:54:52.250Z,0.00
2023-07-01T02:55:24.559Z,0.00
2023-07-01T02:55:56.333Z,0.00
2023-07-01T02:56:28.230Z,0.00
2023-07-01T02:57:00.214Z,0.00
2023-07-01T02:57:32.201Z,0.00
2023-07-01T02:58:04.786Z,0.00
2023-07-01T02:58:36.325Z,0.00
2023-07-01T02:58:52.199Z,0.00
2023-07-01T02:59:36.238Z,0.00
2023-07-01T03:00:10.293Z,0.00
2023-07-01T03:00:40.065Z,0.00
2023-07-01T03:00:56.355Z,0.00
2023-07-01T03:01:40.137Z,0.00
2023-07-01T03:02:12.128Z,0.00
2023-07-01T03:02:44.184Z,0.00
2023-07-01T03:03:15.969Z,0.00
2023-07-01T03:03:47.975Z,0.00
2023-07-01T03:04:21.602Z,0.00
2023-07-01T03:04:51.993Z,0.00
2023-07-01T03:05:24.096Z,0.00
2023-07-01T03:05:55.813Z,0.00
2023-07-01T03:06:27.876Z,0.00
2023-07-01T03:06:59.832Z,0.00
2023-07-01T03:07:31.730Z,0.00
2023-07-01T03:08:04.574Z,0.00
2023-07-01T03:08:35.667Z,0.00
2023-07-01T03:09:07.991Z,0.00
2023-07-01T03:09:39.850Z,0.00
2023-07-01T03:10:11.819Z,0.00
2023-07-01T03:10:43.901Z,0.00
2023-07-01T03:11:15.710Z,0.00
2023-07-01T03:11:47.587Z,0.00
2023-07-01T03:12:19.499Z,0.00
2023-07-01T03:12:51.543Z,0.00
2023-07-01T03:13:23.656Z,0.00
2023-07-01T03:13:55.483Z,0.00
2023-07-01T03:14:27.544Z,0.00
2023-07-01T03:14:59.429Z,0.00
2023-07-01T03:15:31.945Z,0.00
2023-07-01T03:16:04.133Z,0.00
2023-07-01T03:16:35.455Z,0.00
2023-07-01T03:17:07.515Z,0.00
2023-07-01T03:17:39.600Z,0.00
2023-07-01T03:18:11.319Z,0.00
2023-07-01T03:18:43.342Z,0.00
2023-07-01T03:19:15.292Z,0.00
2023-07-01T03:19:47.369Z,0.00
2023-07-01T03:20:19.499Z,0.00
2023-07-01T03:20:35.275Z,0.00
2023-07-01T03:21:07.158Z,0.00
2023-07-01T03:21:23.243Z,0.00
2023-07-01T03:21:55.280Z,0.00
2023-07-01T03:22:27.202Z,0.00
2023-07-01T03:22:59.294Z,0.00
2023-07-01T03:23:31.254Z,0.00
2023-07-01T03:24:04.066Z,0.00
2023-07-01T03:24:35.379Z,0.00
2023-07-01T03:24:51.009Z,0.00
2023-07-01T03:25:23.430Z,0.36
2023-07-01T03:26:07.045Z,0.36
2023-07-01T03:26:38.997Z,0.36
2023-07-01T03:27:11.128Z,0.85
2023-07-01T03:27:42.902Z,0.36
2023-07-01T03:28:15.069Z,0.85
2023-07-01T03:28:47.314Z,0.85
2023-07-01T03:29:18.841Z,0.36
2023-07-01T03:29:35.123Z,1.22
2023-07-01T03:30:19.627Z,1.22
2023-07-01T03:30:51.101Z,1.22
2023-07-01T03:31:23.133Z,1.22
2023-07-01T03:31:55.188Z,1.71
2023-07-01T03:32:26.865Z,2.08
2023-07-01T03:32:59.304Z,2.08
2023-07-01T03:33:31.035Z,1.22
2023-07-01T03:34:03.721Z,1.71
2023-07-01T03:34:34.851Z,2.08
2023-07-01T03:34:50.894Z,2.08
2023-07-01T03:35:35.061Z,2.57
2023-07-01T03:36:06.971Z,2.57
2023-07-01T03:36:41.073Z,2.94
2023-07-01T03:37:10.771Z,2.57
2023-07-01T03:37:42.692Z,3.43
2023-07-01T03:38:14.835Z,3.79
2023-07-01T03:38:46.564Z,3.79
2023-07-01T03:39:18.798Z,3.43
2023-07-01T03:39:50.646Z,3.79
2023-07-01T03:40:22.784Z,3.79
2023-07-01T03:40:54.546Z,4.28
2023-07-01T03:41:26.523Z,3.79
2023-07-01T03:41:58.554Z,3.79
2023-07-01T03:42:30.706Z,4.28
2023-07-01T03:43:02.827Z,4.77
2023-07-01T03:43:34.444Z,4.77
2023-07-01T03:43:50.579Z,5.14
2023-07-01T03:44:22.316Z,4.77
2023-07-01T03:45:09.777Z,5.99
2023-07-01T03:45:38.428Z,5.99
2023-07-01T03:46:10.529Z,5.14
2023-07-01T03:46:42.421Z,5.63
2023-07-01T03:47:14.567Z,5.63
2023-07-01T03:47:46.258Z,5.99
2023-07-01T03:48:18.211Z,6.48
2023-07-01T03:48:50.395Z,5.63
2023-07-01T03:49:22.327Z,5.99
2023-07-01T03:49:54.204Z,6.48
2023-07-01T03:50:26.582Z,6.85
2023-07-01T03:50:58.295Z,6.85
2023-07-01T03:51:30.056Z,6.48
2023-07-01T03:52:02.604Z,7.34
2023-07-01T03:52:34.236Z,8.19
2023-07-01T03:53:05.994Z,7.70
2023-07-01T03:53:37.892Z,8.19
2023-07-01T03:54:10.113Z,7.70
2023-07-01T03:54:41.962Z,8.56
2023-07-01T03:55:14.273Z,9.05
2023-07-01T03:55:45.917Z,9.05
2023-07-01T03:56:17.907Z,9.54
2023-07-01T03:56:34.171Z,9.54
2023-07-01T03:57:06.016Z,9.54
2023-07-01T03:57:22.059Z,8.56
2023-07-01T03:57:53.749Z,9.91
2023-07-01T03:58:25.811Z,9.91
2023-07-01T03:58:57.920Z,10.77
2023-07-01T03:59:29.778Z,9.91
2023-07-01T04:00:04.584Z,10.77
2023-07-01T04:00:33.817Z,10.39
2023-07-01T04:00:50.287Z,10.77
2023-07-01T04:01:23.169Z,10.77
2023-07-01T04:02:05.896Z,10.77
2023-07-01T04:02:37.625Z,10.77
2023-07-01T04:03:09.715Z,11.25
2023-07-01T04:03:41.908Z,12.11
2023-07-01T04:04:13.760Z,11.62
2023-07-01T04:04:45.439Z,12.11
2023-07-01T04:05:17.865Z,12.48
2023-07-01T04:05:33.644Z,12.48
2023-07-01T04:06:17.552Z,12.97
2023-07-01T04:06:49.519Z,13.33
2023-07-01T04:07:21.297Z,13.33
2023-07-01T04:07:53.422Z,13.33
2023-07-01T04:08:25.449Z,14.31
2023-07-01T04:08:57.399Z,13.82
2023-07-01T04:09:29.582Z,13.82
2023-07-01T04:10:01.872Z,14.68
2023-07-01T04:10:33.467Z,13.82
2023-07-01T04:11:05.636Z,14.68
2023-07-01T04:11:37.404Z,14.68
2023-07-01T04:12:09.384Z,14.68
2023-07-01T04:12:41.236Z,15.53
2023-07-01T04:13:13.558Z,14.68
2023-07-01T04:13:45.100Z,15.53
2023-07-01T04:14:17.157Z,15.17
2023-07-01T04:14:33.246Z,15.53
2023-07-01T04:15:07.074Z,16.39
2023-07-01T04:15:21.124Z,16.02
2023-07-01T04:15:53.258Z,16.88
2023-07-01T04:16:25.167Z,16.39
2023-07-01T04:16:57.174Z,17.25
2023-07-01T04:17:29.151Z,16.39
2023-07-01T04:18:01.072Z,17.25
2023-07-01T04:18:32.921Z,18.11
2023-07-01T04:18:49.152Z,17.25
2023-07-01T04:19:20.869Z,17.73
2023-07-01T04:20:05.514Z,19.08
2023-07-01T04:20:36.973Z,18.60
2023-07-01T04:21:09.256Z,18.11
2023-07-01T04:21:41.097Z,19.45
2023-07-01T04:22:12.986Z,19.08
2023-07-01T04:22:44.862Z,18.60
2023-07-01T04:23:16.857Z,19.45
2023-07-01T04:23:48.967Z,20.31
2023-07-01T04:24:20.940Z,20.31
2023-07-01T04:24:52.750Z,20.80
2023-07-01T04:25:24.858Z,20.80
2023-07-01T04:25:56.749Z,21.16
2023-07-01T04:26:28.946Z,20.31
2023-07-01T04:27:00.684Z,21.16
2023-07-01T04:27:32.623Z,20.80
2023-07-01T04:27:49.009Z,21.16
2023-07-01T04:28:32.654Z,22.51
2023-07-01T04:29:05.089Z,21.65
2023-07-01T04:29:36.377Z,22.02
2023-07-01T04:30:10.746Z,22.02
2023-07-01T04:30:40.592Z,22.02
2023-07-01T04:31:12.606Z,22.87
2023-07-01T04:31:44.404Z,22.87
2023-07-01T04:32:16.303Z,23.36
2023-07-01T04:32:48.402Z,22.87
2023-07-01T04:33:20.535Z,23.36
2023-07-01T04:33:52.415Z,23.85
2023-07-01T04:34:24.390Z,24.22
2023-07-01T04:34:56.267Z,23.36
2023-07-01T04:35:28.660Z,23.85
2023-07-01T04:36:00.201Z,24.71
2023-07-01T04:36:32.126Z,24.71
2023-07-01T04:36:48.294Z,24.22
2023-07-01T04:37:20.159Z,24.22
2023-07-01T04:38:05.019Z,24.71
2023-07-01T04:38:36.109Z,25.07
2023-07-01T04:39:08.253Z,25.56
2023-07-01T04:39:40.302Z,25.56
2023-07-01T04:40:12.481Z,25.56
2023-07-01T04:40:44.018Z,25.94
2023-07-01T04:41:16.174Z,26.42
2023-07-01T04:41:32.161Z,25.56
2023-07-01T04:42:15.950Z,27.65
2023-07-01T04:42:48.188Z,29.85
2023-07-01T04:43:19.937Z,33.39
2023-07-01T04:43:51.767Z,33.76
2023-07-01T04:44:24.019Z,32.90
2023-07-01T04:44:55.908Z,34.25
2023-07-01T04:45:28.811Z,36.33
2023-07-01T04:45:59.856Z,37.68
2023-07-01T04:46:31.981Z,39.02
2023-07-01T04:47:04.378Z,38.53
2023-07-01T04:47:35.715Z,39.02
2023-07-01T04:48:07.707Z,39.39
2023-07-01T04:48:39.836Z,40.24
2023-07-01T04:49:11.858Z,40.24
2023-07-01T04:49:43.812Z,41.10
2023-07-01T04:50:15.829Z,41.10
2023-07-01T04:50:31.869Z,41.59
2023-07-01T04:51:04.181Z,41.10
2023-07-01T04:51:19.750Z,42.45
2023-07-01T04:51:51.393Z,42.45
2023-07-01T04:52:23.505Z,43.31
2023-07-01T04:52:55.663Z,43.31
2023-07-01T04:53:27.605Z,43.80
2023-07-01T04:53:59.693Z,44.65
2023-07-01T04:54:31.536Z,44.65
2023-07-01T04:54:47.502Z,45.51
2023-07-01T04:55:21.181Z,45.02
2023-07-01T04:56:04.368Z,45.87
2023-07-01T04:56:35.367Z,45.51
2023-07-01T04:57:07.470Z,45.87
2023-07-01T04:57:39.894Z,46.73
2023-07-01T04:58:11.398Z,48.07
2023-07-01T04:58:43.269Z,48.07
2023-07-01T04:59:15.316Z,47.71
2023-07-01T04:59:47.198Z,47.22
2023-07-01T05:00:19.805Z,47.71
2023-07-01T05:00:51.079Z,50.28
2023-07-01T05:01:23.266Z,49.79
2023-07-01T05:01:55.296Z,51.14
2023-07-01T05:02:27.339Z,51.99
2023-07-01T05:02:59.260Z,51.99
2023-07-01T05:03:31.189Z,51.99
2023-07-01T05:03:47.300Z,51.99
2023-07-01T05:04:31.101Z,52.48
2023-07-01T05:05:04.331Z,53.34
2023-07-01T05:05:35.038Z,55.05
2023-07-01T05:06:06.928Z,55.05
2023-07-01T05:06:39.194Z,55.05
2023-07-01T05:07:11.084Z,55.41
2023-07-01T05:07:42.903Z,56.76
2023-07-01T05:08:14.963Z,55.90
2023-07-01T05:08:31.022Z,56.27
2023-07-01T05:09:03.588Z,57.62
2023-07-01T05:09:19.223Z,57.25
2023-07-01T05:09:50.757Z,57.62
2023-07-01T05:10:22.985Z,61.17
2023-07-01T05:10:54.837Z,60.68
2023-07-01T05:11:26.829Z,61.53
2023-07-01T05:11:58.651Z,62.88
2023-07-01T05:12:30.652Z,64.59
2023-07-01T05:12:46.925Z,64.96
2023-07-01T05:13:18.885Z,68.02
2023-07-01T05:14:03.368Z,68.87
2023-07-01T05:14:34.569Z,69.73
2023-07-01T05:15:07.901Z,70.71
2023-07-01T05:15:38.943Z,71.07
2023-07-01T05:16:10.800Z,71.56
2023-07-01T05:16:42.591Z,71.93
2023-07-01T05:17:14.627Z,74.14
2023-07-01T05:17:46.508Z,74.14
2023-07-01T05:18:18.554Z,75.48
2023-07-01T05:18:50.391Z,75.85
2023-07-01T05:19:22.300Z,76.70
2023-07-01T05:19:54.446Z,78.05
2023-07-01T05:20:26.641Z,76.70
2023-07-01T05:20:58.243Z,77.56
2023-07-01T05:21:30.560Z,77.56
2023-07-01T05:21:46.446Z,76.34
2023-07-01T05:22:30.555Z,78.90
2023-07-01T05:23:02.768Z,79.27
2023-07-01T05:23:34.172Z,80.25
2023-07-01T05:24:06.143Z,80.62
2023-07-01T05:24:38.366Z,80.62
2023-07-01T05:25:10.900Z,80.62
2023-07-01T05:25:42.139Z,81.97
2023-07-01T05:26:14.161Z,82.33
2023-07-01T05:26:33.620Z,81.97
2023-07-01T05:27:02.577Z,82.33
2023-07-01T05:27:18.343Z,83.19
2023-07-01T05:27:50.023Z,83.19
2023-07-01T05:28:22.281Z,84.04
2023-07-01T05:28:54.015Z,85.88
2023-07-01T05:29:26.155Z,85.39
2023-07-01T05:29:57.855Z,86.24
2023-07-01T05:30:30.620Z,87.10
2023-07-01T05:30:46.388Z,87.59
2023-07-01T05:31:17.943Z,89.31
2023-07-01T05:32:02.428Z,89.79
2023-07-01T05:32:33.924Z,91.51
2023-07-01T05:33:05.974Z,91.87
2023-07-01T05:33:37.883Z,92.36
2023-07-01T05:34:09.917Z,93.58
2023-07-01T05:34:41.627Z,94.07
2023-07-01T05:35:14.024Z,96.27
2023-07-01T05:35:30.150Z,95.79
2023-07-01T05:36:13.872Z,97.50
2023-07-01T05:36:45.828Z,98.36
2023-07-01T05:37:17.712Z,99.34
2023-07-01T05:37:49.681Z,102.76
2023-07-01T05:38:21.628Z,102.76
2023-07-01T05:38:53.757Z,104.10
2023-07-01T05:39:25.600Z,104.48
2023-07-01T05:39:57.513Z,107.04
2023-07-01T05:40:14.226Z,108.39
2023-07-01T05:40:46.019Z,109.73
2023-07-01T05:41:17.536Z,111.44
2023-07-01T05:41:49.586Z,112.30
2023-07-01T05:42:33.410Z,115.36
2023-07-01T05:43:05.634Z,115.36
2023-07-01T05:43:37.509Z,115.73
2023-07-01T05:44:09.604Z,117.44
2023-07-01T05:44:41.328Z,117.44
2023-07-01T05:45:14.321Z,118.78
2023-07-01T05:45:45.867Z,120.50
2023-07-01T05:46:17.715Z,120.50
2023-07-01T05:46:49.613Z,120.99
2023-07-01T05:47:21.593Z,121.36
2023-07-01T05:47:53.769Z,122.70
2023-07-01T05:48:25.392Z,124.41
2023-07-01T05:48:57.563Z,125.27
2023-07-01T05:49:29.732Z,125.76
2023-07-01T05:50:02.158Z,126.61
2023-07-01T05:50:33.394Z,125.76
2023-07-01T05:51:05.575Z,125.76
2023-07-01T05:51:37.309Z,127.96
2023-07-01T05:52:09.679Z,128.82
2023-07-01T05:52:41.281Z,128.82
2023-07-01T05:53:13.262Z,130.90
2023-07-01T05:53:45.517Z,127.96
2023-07-01T05:54:17.282Z,131.39
2023-07-01T05:54:49.183Z,131.39
2023-07-01T05:55:21.517Z,133.95
2023-07-01T05:55:53.179Z,134.81
2023-07-01T05:56:25.347Z,135.30
2023-07-01T05:56:57.184Z,136.16
2023-07-01T05:57:29.387Z,137.02
2023-07-01T05:58:01.222Z,137.02
2023-07-01T05:58:33.126Z,139.22
2023-07-01T05:59:05.264Z,139.58
2023-07-01T05:59:36.917Z,139.58
2023-07-01T06:00:10.817Z,152.19
2023-07-01T06:00:41.042Z,142.27
2023-07-01T06:01:12.886Z,139.58
2023-07-01T06:01:29.207Z,139.58
2023-07-01T06:02:01.087Z,141.42
2023-07-01T06:02:16.839Z,141.42
2023-07-01T06:02:49.084Z,144.85
2023-07-01T06:03:20.876Z,149.61
2023-07-01T06:03:52.857Z,156.10
2023-07-01T06:04:25.037Z,159.16
2023-07-01T06:04:56.959Z,160.02
2023-07-01T06:05:29.053Z,161.73
2023-07-01T06:05:44.994Z,162.22
2023-07-01T06:06:16.549Z,162.22
2023-07-01T06:07:00.951Z,161.36
2023-07-01T06:07:32.850Z,160.51
2023-07-01T06:08:05.070Z,160.51
2023-07-01T06:08:36.582Z,162.22
2023-07-01T06:09:08.943Z,164.29
2023-07-01T06:09:40.628Z,166.13
2023-07-01T06:10:12.812Z,162.22
2023-07-01T06:10:45.017Z,164.78
2023-07-01T06:11:16.509Z,164.29
2023-07-01T06:11:48.597Z,164.78
2023-07-01T06:12:20.571Z,163.93
2023-07-01T06:12:52.508Z,164.78
2023-07-01T06:13:24.653Z,166.13
2023-07-01T06:13:56.416Z,169.07
2023-07-01T06:14:28.528Z,169.07
2023-07-01T06:15:01.295Z,169.07
2023-07-01T06:15:32.365Z,169.07
2023-07-01T06:16:05.072Z,170.05
2023-07-01T06:16:39.116Z,168.70
2023-07-01T06:17:08.568Z,170.05
2023-07-01T06:17:40.511Z,169.56
2023-07-01T06:18:12.219Z,169.07
2023-07-01T06:18:28.647Z,170.41
2023-07-01T06:19:00.284Z,170.90
2023-07-01T06:19:16.516Z,172.61
2023-07-01T06:19:48.452Z,173.84
2023-07-01T06:20:20.368Z,176.53
2023-07-01T06:20:52.098Z,178.61
2023-07-01T06:21:24.110Z,180.81
2023-07-01T06:21:56.248Z,181.30
2023-07-01T06:22:28.295Z,182.53
2023-07-01T06:22:44.149Z,182.15
2023-07-01T06:23:16.030Z,183.87
2023-07-01T06:24:00.195Z,184.73
2023-07-01T06:24:31.952Z,185.58
2023-07-01T06:25:04.868Z,186.93
2023-07-01T06:25:35.928Z,186.07
2023-07-01T06:26:08.017Z,185.58
2023-07-01T06:26:39.875Z,187.29
2023-07-01T06:27:11.785Z,189.13
2023-07-01T06:27:28.026Z,189.13
2023-07-01T06:28:11.839Z,190.36
2023-07-01T06:28:43.900Z,193.90
2023-07-01T06:29:16.236Z,194.76
2023-07-01T06:29:47.700Z,195.98
2023-07-01T06:30:20.305Z,196.47
2023-07-01T06:30:51.740Z,196.84
2023-07-01T06:31:23.764Z,196.84
2023-07-01T06:31:55.666Z,196.84
2023-07-01T06:32:29.122Z,199.04
2023-07-01T06:33:00.089Z,197.81
2023-07-01T06:33:31.640Z,199.90
2023-07-01T06:34:04.196Z,202.59
2023-07-01T06:34:35.494Z,202.95
2023-07-01T06:35:07.767Z,205.15
2023-07-01T06:35:39.525Z,81.10
2023-07-01T06:36:11.478Z,207.36
2023-07-01T06:36:27.652Z,206.38
2023-07-01T06:36:59.618Z,209.07
2023-07-01T06:37:15.428Z,207.73
2023-07-01T06:37:47.558Z,212.49
2023-07-01T06:38:19.482Z,238.56
2023-07-01T06:38:51.303Z,212.49
2023-07-01T06:39:23.426Z,213.84
2023-07-01T06:39:55.322Z,214.70
2023-07-01T06:40:27.703Z,215.56
2023-07-01T06:40:59.702Z,219.83
2023-07-01T06:41:31.417Z,219.47
2023-07-01T06:42:03.850Z,215.92
2023-07-01T06:42:34.889Z,85.88
2023-07-01T06:43:07.275Z,222.53
2023-07-01T06:43:39.498Z,223.75
2023-07-01T06:44:11.078Z,226.44
2023-07-01T06:44:27.245Z,226.44
2023-07-01T06:45:13.087Z,228.15
2023-07-01T06:45:42.953Z,106.19
2023-07-01T06:46:15.368Z,231.22
2023-07-01T06:46:48.264Z,230.73
2023-07-01T06:47:19.402Z,234.15
2023-07-01T06:47:51.131Z,235.49
2023-07-01T06:48:23.054Z,235.98